sensor_id;sensor_type;location;lat;lon;timestamp;pressure;altitude;pressure_sealevel;temperature;humidity
42289;BME280;30230;47.520;19.016;2023-02-16T00:00:50;100410.53;;;0.70;99.01
42289;BME280;30230;47.520;19.016;2023-02-16T00:02:50;100292.69;;;-0.03;99.47
42289;BME280;30230;47.520;19.016;2023-02-16T00:04:51;100379.03;;;0.40;99.73
42289;BME280;30230;47.520;19.016;2023-02-16T00:06:52;100273.50;;;-0.19;99.53
42289;BME280;30230;47.520;19.016;2023-02-16T00:08:55;100347.44;;;0.24;99.65
42289;BME280;30230;47.520;19.016;2023-02-16T00:10:56;100406.47;;;0.40;99.98
42289;BME280;30230;47.520;19.016;2023-02-16T00:13:25;100275.91;;;-0.53;100.00
42289;BME280;30230;47.520;19.016;2023-02-16T00:15:46;100300.41;;;-0.49;100.00
42289;BME280;30230;47.520;19.016;2023-02-16T00:17:47;100403.16;;;0.13;100.00
42289;BME280;30230;47.520;19.016;2023-02-16T00:19:47;100318.66;;;-0.32;100.00
42289;BME280;30230;47.520;19.016;2023-02-16T00:21:49;100302.97;;;-0.35;100.00
42289;BME280;30230;47.520;19.016;2023-02-16T00:23:50;100397.59;;;0.29;100.00
42289;BME280;30230;47.520;19.016;2023-02-16T00:25:51;100343.66;;;0.03;100.00
42289;BME280;30230;47.520;19.016;2023-02-16T00:27:52;100350.84;;;0.13;100.00
42289;BME280;30230;47.520;19.016;2023-02-16T00:29:53;100312.88;;;-0.13;100.00
42289;BME280;30230;47.520;19.016;2023-02-16T00:31:54;100284.44;;;-0.23;100.00
42289;BME280;30230;47.520;19.016;2023-02-16T00:33:55;100273.97;;;-0.25;100.00
42289;BME280;30230;47.520;19.016;2023-02-16T00:35:56;100281.81;;;-0.23;100.00
42289;BME280;30230;47.520;19.016;2023-02-16T00:37:57;100280.63;;;-0.19;100.00
42289;BME280;30230;47.520;19.016;2023-02-16T00:39:57;100318.50;;;-0.05;100.00
42289;BME280;30230;47.520;19.016;2023-02-16T00:42:04;100333.69;;;0.06;100.00
42289;BME280;30230;47.520;19.016;2023-02-16T00:44:10;100303.56;;;-0.18;100.00
42289;BME280;30230;47.520;19.016;2023-02-16T00:46:13;100296.75;;;-0.22;100.00
42289;BME280;30230;47.520;19.016;2023-02-16T00:48:14;100313.97;;;-0.15;100.00
42289;BME280;30230;47.520;19.016;2023-02-16T00:50:23;100303.16;;;-0.25;100.00
42289;BME280;30230;47.520;19.016;2023-02-16T00:54:25;100384.16;;;0.43;100.00
42289;BME280;30230;47.520;19.016;2023-02-16T00:56:26;100277.00;;;-0.18;100.00
42289;BME280;30230;47.520;19.016;2023-02-16T00:58:28;100291.84;;;-0.03;100.00
42289;BME280;30230;47.520;19.016;2023-02-16T01:02:42;100253.75;;;-0.28;100.00
42289;BME280;30230;47.520;19.016;2023-02-16T01:04:43;100275.31;;;-0.19;100.00
42289;BME280;30230;47.520;19.016;2023-02-16T01:06:43;100261.59;;;-0.26;100.00
42289;BME280;30230;47.520;19.016;2023-02-16T01:09:15;100362.50;;;0.36;100.00
42289;BME280;30230;47.520;19.016;2023-02-16T01:13:49;100358.19;;;0.22;100.00
42289;BME280;30230;47.520;19.016;2023-02-16T01:15:50;100372.09;;;0.26;100.00
42289;BME280;30230;47.520;19.016;2023-02-16T01:17:51;100369.53;;;0.24;100.00
42289;BME280;30230;47.520;19.016;2023-02-16T01:19:52;100363.56;;;0.34;100.00
42289;BME280;30230;47.520;19.016;2023-02-16T01:21:54;100363.75;;;0.31;100.00
42289;BME280;30230;47.520;19.016;2023-02-16T01:23:54;100345.34;;;0.16;100.00
42289;BME280;30230;47.520;19.016;2023-02-16T01:25:55;100358.38;;;0.19;100.00
42289;BME280;30230;47.520;19.016;2023-02-16T01:27:55;100345.75;;;0.10;100.00
42289;BME280;30230;47.520;19.016;2023-02-16T01:29:56;100359.47;;;0.17;100.00
42289;BME280;30230;47.520;19.016;2023-02-16T01:31:56;100354.69;;;0.09;100.00
42289;BME280;30230;47.520;19.016;2023-02-16T01:33:57;100355.53;;;0.10;100.00
42289;BME280;30230;47.520;19.016;2023-02-16T01:35:57;100339.75;;;-0.05;100.00
42289;BME280;30230;47.520;19.016;2023-02-16T01:37:58;100355.56;;;-0.03;100.00
42289;BME280;30230;47.520;19.016;2023-02-16T01:39:58;100352.19;;;-0.05;100.00
42289;BME280;30230;47.520;19.016;2023-02-16T01:42:10;100348.78;;;-0.07;100.00
42289;BME280;30230;47.520;19.016;2023-02-16T01:44:21;100347.81;;;-0.06;100.00
42289;BME280;30230;47.520;19.016;2023-02-16T01:46:32;100341.56;;;-0.05;100.00
42289;BME280;30230;47.520;19.016;2023-02-16T01:48:35;100339.63;;;-0.03;100.00
42289;BME280;30230;47.520;19.016;2023-02-16T01:50:44;100341.06;;;-0.10;100.00
42289;BME280;30230;47.520;19.016;2023-02-16T01:52:51;100346.97;;;-0.07;100.00
42289;BME280;30230;47.520;19.016;2023-02-16T01:57:35;100342.19;;;-0.02;100.00
42289;BME280;30230;47.520;19.016;2023-02-16T02:00:01;100219.03;;;-0.74;100.00
42289;BME280;30230;47.520;19.016;2023-02-16T02:02:11;100285.19;;;-0.21;100.00
42289;BME280;30230;47.520;19.016;2023-02-16T02:04:26;100264.09;;;-0.36;100.00
42289;BME280;30230;47.520;19.016;2023-02-16T02:06:46;100228.44;;;-0.57;100.00
42289;BME280;30230;47.520;19.016;2023-02-16T02:09:05;100324.22;;;0.02;100.00
42289;BME280;30230;47.520;19.016;2023-02-16T02:11:29;100187.44;;;-0.77;100.00
42289;BME280;30230;47.520;19.016;2023-02-16T02:13:46;100228.44;;;-0.57;100.00
42289;BME280;30230;47.520;19.016;2023-02-16T02:15:49;100246.06;;;-0.43;100.00
42289;BME280;30230;47.520;19.016;2023-02-16T02:17:50;100238.41;;;-0.48;100.00
42289;BME280;30230;47.520;19.016;2023-02-16T02:20:07;100186.47;;;-0.76;100.00
42289;BME280;30230;47.520;19.016;2023-02-16T02:34:37;100245.72;;;-0.39;100.00
42289;BME280;30230;47.520;19.016;2023-02-16T02:43:42;100215.97;;;-0.81;100.00
42289;BME280;30230;47.520;19.016;2023-02-16T02:47:46;100216.72;;;-0.79;100.00
42289;BME280;30230;47.520;19.016;2023-02-16T02:49:52;100212.00;;;-0.62;100.00
42289;BME280;30230;47.520;19.016;2023-02-16T02:51:55;100162.31;;;-0.97;100.00
42289;BME280;30230;47.520;19.016;2023-02-16T02:54:06;100305.03;;;-0.14;100.00
42289;BME280;30230;47.520;19.016;2023-02-16T02:58:49;100183.97;;;-1.03;100.00
42289;BME280;30230;47.520;19.016;2023-02-16T03:01:12;100218.31;;;-0.76;100.00
42289;BME280;30230;47.520;19.016;2023-02-16T03:03:24;100297.84;;;-0.25;100.00
42289;BME280;30230;47.520;19.016;2023-02-16T03:05:32;100179.19;;;-0.98;100.00
42289;BME280;30230;47.520;19.016;2023-02-16T03:07:33;100300.38;;;-0.23;100.00
42289;BME280;30230;47.520;19.016;2023-02-16T03:09:47;100234.63;;;-0.69;100.00
42289;BME280;30230;47.520;19.016;2023-02-16T03:12:08;100220.22;;;-0.78;100.00
42289;BME280;30230;47.520;19.016;2023-02-16T03:14:32;100196.25;;;-0.89;100.00
42289;BME280;30230;47.520;19.016;2023-02-16T03:16:48;100303.56;;;-0.31;100.00
42289;BME280;30230;47.520;19.016;2023-02-16T03:21:27;100182.50;;;-1.07;100.00
42289;BME280;30230;47.520;19.016;2023-02-16T03:25:57;100201.16;;;-0.96;100.00
42289;BME280;30230;47.520;19.016;2023-02-16T03:28:19;100243.13;;;-0.64;100.00
42289;BME280;30230;47.520;19.016;2023-02-16T03:32:50;100199.97;;;-0.92;100.00
42289;BME280;30230;47.520;19.016;2023-02-16T03:34:51;100179.09;;;-0.96;100.00
42289;BME280;30230;47.520;19.016;2023-02-16T03:36:55;100247.69;;;-0.66;100.00
42289;BME280;30230;47.520;19.016;2023-02-16T03:39:00;100217.59;;;-0.91;100.00
42289;BME280;30230;47.520;19.016;2023-02-16T03:41:02;100189.47;;;-1.06;100.00
42289;BME280;30230;47.520;19.016;2023-02-16T03:43:06;100225.22;;;-0.86;100.00
42289;BME280;30230;47.520;19.016;2023-02-16T03:45:07;100291.69;;;-0.38;100.00
42289;BME280;30230;47.520;19.016;2023-02-16T03:47:08;100172.09;;;-1.10;100.00
42289;BME280;30230;47.520;19.016;2023-02-16T03:49:10;100178.03;;;-1.07;100.00
42289;BME280;30230;47.520;19.016;2023-02-16T03:51:11;100187.25;;;-0.99;100.00
42289;BME280;30230;47.520;19.016;2023-02-16T03:53:12;100210.47;;;-0.77;100.00
42289;BME280;30230;47.520;19.016;2023-02-16T03:55:12;100206.94;;;-0.78;100.00
42289;BME280;30230;47.520;19.016;2023-02-16T03:57:13;100168.28;;;-1.06;100.00
42289;BME280;30230;47.520;19.016;2023-02-16T03:59:14;100201.13;;;-0.83;100.00
42289;BME280;30230;47.520;19.016;2023-02-16T04:01:19;100171.66;;;-1.04;100.00
42289;BME280;30230;47.520;19.016;2023-02-16T04:03:20;100232.00;;;-0.69;100.00
42289;BME280;30230;47.520;19.016;2023-02-16T04:05:20;100283.94;;;-0.29;100.00
42289;BME280;30230;47.520;19.016;2023-02-16T04:07:21;100241.97;;;-0.60;100.00
42289;BME280;30230;47.520;19.016;2023-02-16T04:09:22;100254.13;;;-0.58;100.00
42289;BME280;30230;47.520;19.016;2023-02-16T04:11:22;100163.94;;;-1.07;100.00
42289;BME280;30230;47.520;19.016;2023-02-16T04:13:41;100171.66;;;-1.04;100.00
42289;BME280;30230;47.520;19.016;2023-02-16T04:15:42;100190.09;;;-0.90;100.00
42289;BME280;30230;47.520;19.016;2023-02-16T04:17:43;100180.56;;;-1.05;100.00
42289;BME280;30230;47.520;19.016;2023-02-16T04:19:44;100163.00;;;-1.19;100.00
42289;BME280;30230;47.520;19.016;2023-02-16T04:21:44;100201.25;;;-0.97;100.00
42289;BME280;30230;47.520;19.016;2023-02-16T04:23:45;100160.84;;;-1.26;100.00
42289;BME280;30230;47.520;19.016;2023-02-16T04:25:45;100267.72;;;-0.62;100.00
42289;BME280;30230;47.520;19.016;2023-02-16T04:27:48;100162.78;;;-1.28;100.00
42289;BME280;30230;47.520;19.016;2023-02-16T04:29:49;100152.72;;;-1.23;100.00
42289;BME280;30230;47.520;19.016;2023-02-16T04:31:49;100289.59;;;-0.46;100.00
42289;BME280;30230;47.520;19.016;2023-02-16T04:33:50;100181.44;;;-1.17;100.00
42289;BME280;30230;47.520;19.016;2023-02-16T04:35:50;100170.94;;;-1.19;100.00
42289;BME280;30230;47.520;19.016;2023-02-16T04:37:51;100202.53;;;-1.03;100.00
42289;BME280;30230;47.520;19.016;2023-02-16T04:39:52;100230.97;;;-0.92;100.00
42289;BME280;30230;47.520;19.016;2023-02-16T04:41:52;100230.84;;;-0.91;100.00
42289;BME280;30230;47.520;19.016;2023-02-16T04:43:53;100290.34;;;-0.57;100.00
42289;BME280;30230;47.520;19.016;2023-02-16T04:45:54;100217.47;;;-0.89;100.00
42289;BME280;30230;47.520;19.016;2023-02-16T04:47:54;100268.38;;;-0.59;100.00
42289;BME280;30230;47.520;19.016;2023-02-16T04:49:55;100296.91;;;-0.49;100.00
42289;BME280;30230;47.520;19.016;2023-02-16T04:51:55;100181.63;;;-1.20;100.00
42289;BME280;30230;47.520;19.016;2023-02-16T04:53:56;100291.09;;;-0.55;100.00
42289;BME280;30230;47.520;19.016;2023-02-16T04:55:57;100203.38;;;-1.02;100.00
42289;BME280;30230;47.520;19.016;2023-02-16T04:57:58;100189.91;;;-1.12;100.00
42289;BME280;30230;47.520;19.016;2023-02-16T04:59:58;100303.06;;;-0.49;100.00
42289;BME280;30230;47.520;19.016;2023-02-16T05:04:09;100205.59;;;-0.96;100.00
42289;BME280;30230;47.520;19.016;2023-02-16T05:06:10;100293.19;;;-0.47;100.00
42289;BME280;30230;47.520;19.016;2023-02-16T05:08:10;100181.09;;;-1.00;100.00
42289;BME280;30230;47.520;19.016;2023-02-16T05:10:11;100163.31;;;-1.23;100.00
42289;BME280;30230;47.520;19.016;2023-02-16T05:12:13;100283.25;;;-0.56;100.00
42289;BME280;30230;47.520;19.016;2023-02-16T05:14:34;100153.13;;;-1.42;100.00
42289;BME280;30230;47.520;19.016;2023-02-16T05:21:05;100196.38;;;-1.16;100.00
42289;BME280;30230;47.520;19.016;2023-02-16T05:23:24;100298.84;;;-0.64;100.00
42289;BME280;30230;47.520;19.016;2023-02-16T05:25:24;100153.78;;;-1.39;100.00
42289;BME280;30230;47.520;19.016;2023-02-16T05:27:27;100198.41;;;-1.07;100.00
42289;BME280;30230;47.520;19.016;2023-02-16T05:29:28;100201.47;;;-1.13;100.00
42289;BME280;30230;47.520;19.016;2023-02-16T05:31:29;100145.47;;;-1.47;100.00
42289;BME280;30230;47.520;19.016;2023-02-16T05:35:39;100198.81;;;-1.26;100.00
42289;BME280;30230;47.520;19.016;2023-02-16T05:37:40;100206.75;;;-1.26;100.00
42289;BME280;30230;47.520;19.016;2023-02-16T05:39:41;100288.56;;;-0.82;100.00
42289;BME280;30230;47.520;19.016;2023-02-16T05:43:54;100271.91;;;-0.96;100.00
42289;BME280;30230;47.520;19.016;2023-02-16T05:45:54;100286.88;;;-0.83;100.00
42289;BME280;30230;47.520;19.016;2023-02-16T05:47:55;100283.88;;;-0.78;100.00
42289;BME280;30230;47.520;19.016;2023-02-16T05:49:55;100279.00;;;-0.71;100.00
42289;BME280;30230;47.520;19.016;2023-02-16T05:54:06;100288.53;;;-0.69;100.00
42289;BME280;30230;47.520;19.016;2023-02-16T05:56:07;100203.50;;;-1.17;100.00
42289;BME280;30230;47.520;19.016;2023-02-16T05:58:07;100207.72;;;-1.14;100.00
42289;BME280;30230;47.520;19.016;2023-02-16T06:00:08;100200.94;;;-1.18;100.00
42289;BME280;30230;47.520;19.016;2023-02-16T06:02:09;100268.50;;;-0.60;100.00
42289;BME280;30230;47.520;19.016;2023-02-16T06:04:11;100157.47;;;-1.41;100.00
42289;BME280;30230;47.520;19.016;2023-02-16T06:06:12;100231.56;;;-0.89;100.00
42289;BME280;30230;47.520;19.016;2023-02-16T06:08:13;100267.19;;;-0.67;100.00
42289;BME280;30230;47.520;19.016;2023-02-16T06:10:13;100263.91;;;-0.58;100.00
42289;BME280;30230;47.520;19.016;2023-02-16T06:12:15;100259.47;;;-0.70;100.00
42289;BME280;30230;47.520;19.016;2023-02-16T06:14:17;100263.50;;;-0.65;100.00
42289;BME280;30230;47.520;19.016;2023-02-16T06:16:18;100265.44;;;-0.67;100.00
42289;BME280;30230;47.520;19.016;2023-02-16T06:20:28;100220.44;;;-0.94;100.00
42289;BME280;30230;47.520;19.016;2023-02-16T06:22:29;100216.63;;;-0.77;100.00
42289;BME280;30230;47.520;19.016;2023-02-16T06:24:33;100198.59;;;-0.85;100.00
42289;BME280;30230;47.520;19.016;2023-02-16T06:26:34;100191.19;;;-0.92;100.00
42289;BME280;30230;47.520;19.016;2023-02-16T06:28:35;100179.53;;;-1.02;100.00
42289;BME280;30230;47.520;19.016;2023-02-16T06:30:35;100208.03;;;-0.81;100.00
42289;BME280;30230;47.520;19.016;2023-02-16T06:32:36;100249.91;;;-0.60;100.00
42289;BME280;30230;47.520;19.016;2023-02-16T06:34:36;100267.41;;;-0.45;100.00
42289;BME280;30230;47.520;19.016;2023-02-16T06:36:37;100259.88;;;-0.51;100.00
42289;BME280;30230;47.520;19.016;2023-02-16T06:38:37;100260.16;;;-0.43;100.00
42289;BME280;30230;47.520;19.016;2023-02-16T06:40:38;100266.75;;;-0.36;100.00
42289;BME280;30230;47.520;19.016;2023-02-16T06:42:39;100260.69;;;-0.38;100.00
42289;BME280;30230;47.520;19.016;2023-02-16T06:44:39;100258.69;;;-0.34;100.00
42289;BME280;30230;47.520;19.016;2023-02-16T06:46:45;100258.78;;;-0.36;100.00
42289;BME280;30230;47.520;19.016;2023-02-16T06:48:46;100252.41;;;-0.33;100.00
42289;BME280;30230;47.520;19.016;2023-02-16T06:50:46;100267.56;;;-0.22;100.00
42289;BME280;30230;47.520;19.016;2023-02-16T06:52:48;100265.16;;;-0.25;100.00
42289;BME280;30230;47.520;19.016;2023-02-16T06:54:48;100252.19;;;-0.30;100.00
42289;BME280;30230;47.520;19.016;2023-02-16T06:56:49;100263.22;;;-0.23;100.00
42289;BME280;30230;47.520;19.016;2023-02-16T07:00:53;100227.88;;;-0.37;100.00
42289;BME280;30230;47.520;19.016;2023-02-16T07:02:54;100236.66;;;-0.23;100.00
42289;BME280;30230;47.520;19.016;2023-02-16T07:04:55;100219.66;;;-0.21;100.00
42289;BME280;30230;47.520;19.016;2023-02-16T07:06:55;100212.09;;;-0.14;100.00
42289;BME280;30230;47.520;19.016;2023-02-16T07:08:56;100243.97;;;0.10;100.00
42289;BME280;30230;47.520;19.016;2023-02-16T07:10:56;100251.31;;;0.30;100.00
42289;BME280;30230;47.520;19.016;2023-02-16T07:12:57;100256.06;;;0.38;100.00
42289;BME280;30230;47.520;19.016;2023-02-16T07:14:57;100258.72;;;0.38;100.00
42289;BME280;30230;47.520;19.016;2023-02-16T07:16:58;100242.59;;;0.52;100.00
42289;BME280;30230;47.520;19.016;2023-02-16T07:19:03;100254.13;;;0.64;100.00
42289;BME280;30230;47.520;19.016;2023-02-16T07:21:05;100256.44;;;0.68;100.00
42289;BME280;30230;47.520;19.016;2023-02-16T07:23:05;100262.41;;;0.83;100.00
42289;BME280;30230;47.520;19.016;2023-02-16T07:25:06;100258.03;;;2.38;100.00
42289;BME280;30230;47.520;19.016;2023-02-16T07:27:06;100262.25;;;2.19;100.00
42289;BME280;30230;47.520;19.016;2023-02-16T07:29:07;100271.22;;;2.18;100.00
42289;BME280;30230;47.520;19.016;2023-02-16T07:31:09;100268.38;;;1.88;99.21
42289;BME280;30230;47.520;19.016;2023-02-16T07:33:10;100259.66;;;1.74;100.00
42289;BME280;30230;47.520;19.016;2023-02-16T07:35:10;100254.47;;;1.62;100.00
42289;BME280;30230;47.520;19.016;2023-02-16T07:37:11;100251.69;;;1.52;100.00
42289;BME280;30230;47.520;19.016;2023-02-16T07:39:12;100167.50;;;0.84;100.00
42289;BME280;30230;47.520;19.016;2023-02-16T07:41:12;100142.09;;;0.57;100.00
42289;BME280;30230;47.520;19.016;2023-02-16T07:43:13;100210.06;;;0.95;100.00
42289;BME280;30230;47.520;19.016;2023-02-16T07:45:13;100169.25;;;0.61;100.00
42289;BME280;30230;47.520;19.016;2023-02-16T07:49:23;100167.50;;;0.72;100.00
42289;BME280;30230;47.520;19.016;2023-02-16T07:53:34;100165.53;;;1.42;100.00
42289;BME280;30230;47.520;19.016;2023-02-16T07:57:46;100177.16;;;1.52;100.00
42289;BME280;30230;47.520;19.016;2023-02-16T07:59:50;100140.88;;;1.28;100.00
42289;BME280;30230;47.520;19.016;2023-02-16T08:01:51;100198.56;;;1.62;100.00
42289;BME280;30230;47.520;19.016;2023-02-16T08:03:52;100244.13;;;2.02;100.00
42289;BME280;30230;47.520;19.016;2023-02-16T08:05:53;100230.56;;;1.94;100.00
42289;BME280;30230;47.520;19.016;2023-02-16T08:07:53;100174.47;;;1.63;100.00
42289;BME280;30230;47.520;19.016;2023-02-16T08:09:54;100216.03;;;1.98;100.00
42289;BME280;30230;47.520;19.016;2023-02-16T08:11:54;100189.00;;;2.02;99.62
42289;BME280;30230;47.520;19.016;2023-02-16T08:13:57;100253.22;;;2.64;98.60
42289;BME280;30230;47.520;19.016;2023-02-16T08:15:59;100175.44;;;2.26;97.17
42289;BME280;30230;47.520;19.016;2023-02-16T08:18:00;100181.66;;;2.48;96.31
42289;BME280;30230;47.520;19.016;2023-02-16T08:20:02;100259.97;;;3.09;95.42
42289;BME280;30230;47.520;19.016;2023-02-16T08:22:03;100255.44;;;3.21;93.54
42289;BME280;30230;47.520;19.016;2023-02-16T08:24:06;100255.44;;;3.21;92.46
42289;BME280;30230;47.520;19.016;2023-02-16T08:26:14;100194.31;;;2.97;92.29
42289;BME280;30230;47.520;19.016;2023-02-16T08:28:19;100258.16;;;3.71;89.67
42289;BME280;30230;47.520;19.016;2023-02-16T08:30:21;100201.03;;;3.53;88.26
42289;BME280;30230;47.520;19.016;2023-02-16T08:32:36;100211.94;;;3.80;86.97
42289;BME280;30230;47.520;19.016;2023-02-16T08:34:38;100231.56;;;4.10;85.28
42289;BME280;30230;47.520;19.016;2023-02-16T08:36:43;100195.63;;;3.83;85.94
42289;BME280;30230;47.520;19.016;2023-02-16T08:38:44;100163.66;;;3.53;86.43
42289;BME280;30230;47.520;19.016;2023-02-16T08:40:49;100193.34;;;3.69;86.65
42289;BME280;30230;47.520;19.016;2023-02-16T08:42:52;100234.06;;;4.02;85.16
42289;BME280;30230;47.520;19.016;2023-02-16T08:44:53;100160.94;;;3.43;85.81
42289;BME280;30230;47.520;19.016;2023-02-16T08:46:55;100229.19;;;3.66;85.72
42289;BME280;30230;47.520;19.016;2023-02-16T08:53:24;100149.94;;;2.96;89.10
42289;BME280;30230;47.520;19.016;2023-02-16T08:55:27;100207.16;;;3.34;88.64
42289;BME280;30230;47.520;19.016;2023-02-16T08:57:28;100182.22;;;3.24;88.56
42289;BME280;30230;47.520;19.016;2023-02-16T08:59:29;100168.13;;;3.12;87.82
42289;BME280;30230;47.520;19.016;2023-02-16T09:05:51;100206.22;;;4.04;85.16
42289;BME280;30230;47.520;19.016;2023-02-16T09:08:01;100153.31;;;3.88;84.65
42289;BME280;30230;47.520;19.016;2023-02-16T09:10:05;100262.28;;;4.74;83.52
42289;BME280;30230;47.520;19.016;2023-02-16T09:12:21;100162.59;;;4.13;82.75
42289;BME280;30230;47.520;19.016;2023-02-16T09:14:32;100266.19;;;4.89;82.09
42289;BME280;30230;47.520;19.016;2023-02-16T09:16:39;100256.34;;;4.89;81.23
42289;BME280;30230;47.520;19.016;2023-02-16T09:18:45;100254.66;;;4.88;82.31
42289;BME280;30230;47.520;19.016;2023-02-16T09:20:48;100168.25;;;4.39;81.43
42289;BME280;30230;47.520;19.016;2023-02-16T09:22:51;100212.00;;;4.67;81.71
42289;BME280;30230;47.520;19.016;2023-02-16T09:25:04;100258.00;;;5.10;80.77
42289;BME280;30230;47.520;19.016;2023-02-16T09:27:08;100190.44;;;4.69;80.37
42289;BME280;30230;47.520;19.016;2023-02-16T09:29:16;100208.47;;;4.77;80.06
42289;BME280;30230;47.520;19.016;2023-02-16T09:31:46;100265.16;;;5.19;78.57
42289;BME280;30230;47.520;19.016;2023-02-16T09:33:47;100238.78;;;5.24;77.76
42289;BME280;30230;47.520;19.016;2023-02-16T09:35:47;100250.75;;;5.30;77.60
42289;BME280;30230;47.520;19.016;2023-02-16T09:37:48;100260.44;;;5.40;78.08
42289;BME280;30230;47.520;19.016;2023-02-16T09:39:49;100244.19;;;5.52;78.35
42289;BME280;30230;47.520;19.016;2023-02-16T09:45:09;100250.28;;;6.09;73.02
42289;BME280;30230;47.520;19.016;2023-02-16T09:49:34;100263.84;;;6.07;75.20
42289;BME280;30230;47.520;19.016;2023-02-16T09:53:42;100214.19;;;6.03;74.88
42289;BME280;30230;47.520;19.016;2023-02-16T10:01:44;100216.97;;;6.65;73.38
42289;BME280;30230;47.520;19.016;2023-02-16T10:09:53;100244.63;;;6.83;72.68
42289;BME280;30230;47.520;19.016;2023-02-16T10:14:51;100237.66;;;7.16;71.42
42289;BME280;30230;47.520;19.016;2023-02-16T10:17:03;100216.22;;;6.98;71.97
42289;BME280;30230;47.520;19.016;2023-02-16T10:19:22;100227.38;;;7.12;71.99
42289;BME280;30230;47.520;19.016;2023-02-16T10:21:26;100155.31;;;6.81;71.20
42289;BME280;30230;47.520;19.016;2023-02-16T10:23:51;100230.41;;;7.35;71.79
42289;BME280;30230;47.520;19.016;2023-02-16T10:29:22;100172.59;;;7.30;71.74
42289;BME280;30230;47.520;19.016;2023-02-16T10:31:55;100229.09;;;7.81;70.97
42289;BME280;30230;47.520;19.016;2023-02-16T10:45:32;100212.81;;;8.66;67.81
42289;BME280;30230;47.520;19.016;2023-02-16T10:47:58;100210.63;;;8.69;68.46
42289;BME280;30230;47.520;19.016;2023-02-16T10:51:01;100201.34;;;8.88;66.25
42289;BME280;30230;47.520;19.016;2023-02-16T10:53:56;100197.63;;;8.97;66.11
42289;BME280;30230;47.520;19.016;2023-02-16T11:01:39;100169.34;;;8.93;64.75
42289;BME280;30230;47.520;19.016;2023-02-16T11:07:02;100183.97;;;9.07;63.15
42289;BME280;30230;47.520;19.016;2023-02-16T11:09:15;100143.81;;;8.65;64.54
42289;BME280;30230;47.520;19.016;2023-02-16T11:11:38;100153.19;;;9.01;64.38
42289;BME280;30230;47.520;19.016;2023-02-16T11:14:21;100193.56;;;9.26;64.58
42289;BME280;30230;47.520;19.016;2023-02-16T11:17:08;100184.09;;;9.30;63.47
42289;BME280;30230;47.520;19.016;2023-02-16T11:19:27;100172.66;;;9.20;64.66
42289;BME280;30230;47.520;19.016;2023-02-16T11:24:08;100171.56;;;9.45;65.00
42289;BME280;30230;47.520;19.016;2023-02-16T11:28:10;100167.38;;;9.43;65.30
42289;BME280;30230;47.520;19.016;2023-02-16T11:30:34;100163.75;;;9.67;64.62
42289;BME280;30230;47.520;19.016;2023-02-16T11:32:35;100165.03;;;9.79;62.33
42289;BME280;30230;47.520;19.016;2023-02-16T11:34:55;100156.81;;;9.72;63.72
42289;BME280;30230;47.520;19.016;2023-02-16T11:37:32;100137.44;;;9.60;64.49
42289;BME280;30230;47.520;19.016;2023-02-16T11:40:29;100157.78;;;9.79;62.56
42289;BME280;30230;47.520;19.016;2023-02-16T11:44:52;100106.91;;;9.68;63.35
42289;BME280;30230;47.520;19.016;2023-02-16T11:46:54;100153.53;;;10.08;61.11
42289;BME280;30230;47.520;19.016;2023-02-16T11:49:20;100140.59;;;10.03;62.64
42289;BME280;30230;47.520;19.016;2023-02-16T11:51:40;100128.72;;;10.12;62.24
42289;BME280;30230;47.520;19.016;2023-02-16T11:53:59;100138.41;;;10.30;60.90
42289;BME280;30230;47.520;19.016;2023-02-16T11:56:23;100137.63;;;10.44;60.13
42289;BME280;30230;47.520;19.016;2023-02-16T11:58:27;100119.53;;;10.22;61.20
42289;BME280;30230;47.520;19.016;2023-02-16T12:00:28;100116.66;;;10.23;61.41
42289;BME280;30230;47.520;19.016;2023-02-16T12:06:15;100117.56;;;10.61;60.62
42289;BME280;30230;47.520;19.016;2023-02-16T12:10:11;100111.50;;;10.74;60.30
42289;BME280;30230;47.520;19.016;2023-02-16T12:12:53;100098.53;;;10.69;60.33
42289;BME280;30230;47.520;19.016;2023-02-16T12:17:30;100090.72;;;10.75;60.00
42289;BME280;30230;47.520;19.016;2023-02-16T12:19:40;100036.13;;;10.50;59.84
42289;BME280;30230;47.520;19.016;2023-02-16T12:21:50;100091.22;;;10.78;60.44
42289;BME280;30230;47.520;19.016;2023-02-16T12:30:53;100082.97;;;10.57;61.07
42289;BME280;30230;47.520;19.016;2023-02-16T12:33:15;100073.00;;;10.57;63.20
42289;BME280;30230;47.520;19.016;2023-02-16T12:43:51;100069.16;;;10.37;62.59
42289;BME280;30230;47.520;19.016;2023-02-16T12:45:26;100061.94;;;10.67;69.60
42289;BME280;30230;47.520;19.016;2023-02-16T12:47:36;100063.81;;;10.66;62.59
42289;BME280;30230;47.520;19.016;2023-02-16T12:49:57;100055.13;;;10.56;61.96
42289;BME280;30230;47.520;19.016;2023-02-16T12:54:41;100037.22;;;10.40;61.98
42289;BME280;30230;47.520;19.016;2023-02-16T12:56:48;100049.91;;;10.40;64.27
42289;BME280;30230;47.520;19.016;2023-02-16T12:59:02;100050.16;;;10.30;63.47
42289;BME280;30230;47.520;19.016;2023-02-16T13:01:11;100046.06;;;10.49;62.97
42289;BME280;30230;47.520;19.016;2023-02-16T13:03:36;100046.34;;;10.54;63.51
42289;BME280;30230;47.520;19.016;2023-02-16T13:05:37;100043.13;;;10.44;62.69
42289;BME280;30230;47.520;19.016;2023-02-16T13:07:39;100029.38;;;10.31;64.17
42289;BME280;30230;47.520;19.016;2023-02-16T13:10:01;100025.38;;;10.27;63.27
42289;BME280;30230;47.520;19.016;2023-02-16T13:12:05;100033.13;;;10.30;63.29
42289;BME280;30230;47.520;19.016;2023-02-16T13:14:10;100026.69;;;10.31;63.38
42289;BME280;30230;47.520;19.016;2023-02-16T13:16:35;100027.41;;;10.25;63.88
42289;BME280;30230;47.520;19.016;2023-02-16T13:18:38;100027.75;;;10.22;63.55
42289;BME280;30230;47.520;19.016;2023-02-16T13:20:45;100024.00;;;10.23;62.49